Time;durP1;ratioP1;P1;durP2;ratioP2;P2;SDS_P1;SDS_P2;PMS_P1;PMS_P2;Temp;Humidity;BMP_temperature;BMP_pressure;BME280_temperature;BME280_humidity;BME280_pressure;Samples;Min_cycle;Max_cycle;Signal;HPM_P1;HPM_P2
2022/12/31 00:01:09;;;;;;;12.63;2.28;;;;;;;8.76;77.52;98215.97;4983795;28;20054;-54
2022/12/31 00:03:36;;;;;;;6.85;2.35;;;;;;;8.74;77.41;98209.09;4983149;28;20507;-55
2022/12/31 00:06:15;;;;;;;7.28;2.42;;;;;;;8.72;77.72;98213.44;4985489;28;20502;-57
2022/12/31 00:08:43;;;;;;;6.68;2.28;;;;;;;8.76;77.62;98205.63;4981073;28;20090;-55
2022/12/31 00:11:10;;;;;;;5.53;1.98;;;;;;;8.75;77.46;98209.97;4980101;28;20046;-56
2022/12/31 00:13:38;;;;;;;6.63;1.80;;;;;;;8.75;77.47;98204.81;4984483;28;20471;-57
2022/12/31 00:16:07;;;;;;;8.30;1.95;;;;;;;8.77;77.78;98199.56;4984365;28;20054;-54
2022/12/31 00:18:45;;;;;;;5.55;1.92;;;;;;;8.76;77.08;98195.31;4986187;28;20072;-54
2022/12/31 00:21:13;;;;;;;8.57;2.38;;;;;;;8.77;77.17;98191.84;4964997;28;20062;-55
2022/12/31 00:23:40;;;;;;;7.47;2.25;;;;;;;8.78;76.96;98198.72;4981155;28;20057;-53
2022/12/31 00:26:09;;;;;;;10.15;1.70;;;;;;;8.76;77.17;98205.63;4984847;28;20505;-51
2022/12/31 00:28:37;;;;;;;8.98;2.90;;;;;;;8.74;77.56;98203.94;4982482;28;20050;-52
2022/12/31 00:31:11;;;;;;;7.40;2.83;;;;;;;8.68;77.37;98204.09;4983176;28;20965;-53
2022/12/31 00:33:39;;;;;;;10.18;2.85;;;;;;;8.72;77.14;98210.88;4987138;28;20566;-55
2022/12/31 00:36:09;;;;;;;7.68;2.92;;;;;;;8.73;76.92;98216.88;4978375;28;20149;-54
2022/12/31 00:38:37;;;;;;;5.80;3.22;;;;;;;8.72;77.27;98222.94;5001025;28;20310;-54
2022/12/31 00:41:05;;;;;;;6.82;2.15;;;;;;;8.73;77.04;98212.59;4979805;28;20078;-53
2022/12/31 00:43:32;;;;;;;6.63;1.02;;;;;;;8.74;77.15;98208.25;4986413;28;20489;-56
2022/12/31 00:45:59;;;;;;;8.07;2.00;;;;;;;8.73;76.74;98211.72;4980123;28;20101;-54
2022/12/31 00:48:26;;;;;;;8.07;2.30;;;;;;;8.72;77.57;98213.44;4981222;28;20078;-52
2022/12/31 00:50:54;;;;;;;7.47;2.58;;;;;;;8.69;77.07;98205.81;4979577;28;20503;-52
2022/12/31 00:53:22;;;;;;;6.50;2.03;;;;;;;8.70;77.46;98207.50;4984056;28;20081;-57
2022/12/31 00:55:49;;;;;;;4.38;1.88;;;;;;;8.68;77.48;98208.41;4983754;28;20089;-55
2022/12/31 00:58:16;;;;;;;11.07;2.25;;;;;;;8.66;78.19;98203.28;4981520;28;20082;-54
2022/12/31 01:00:43;;;;;;;7.97;2.50;;;;;;;8.69;78.07;98203.22;4983427;28;20047;-52
2022/12/31 01:03:09;;;;;;;9.43;4.40;;;;;;;8.71;77.82;98205.72;4979119;28;20106;-55
2022/12/31 01:05:36;;;;;;;8.40;2.58;;;;;;;8.69;77.85;98204.94;4986310;28;20069;-57
2022/12/31 01:08:04;;;;;;;7.30;2.88;;;;;;;8.66;78.26;98200.72;4983027;28;20081;-55
2022/12/31 01:13:17;;;;;;;11.63;2.90;;;;;;;8.64;77.89;98199.88;4982197;28;20183;-50
2022/12/31 01:15:44;;;;;;;5.00;1.95;;;;;;;8.62;78.24;98199.09;4984905;28;20066;-51
2022/12/31 01:18:11;;;;;;;7.25;2.22;;;;;;;8.63;78.68;98187.88;4983208;28;20058;-57
2022/12/31 01:20:40;;;;;;;6.82;2.20;;;;;;;8.63;77.90;98185.28;4979838;28;20186;-53
2022/12/31 01:23:09;;;;;;;3.15;1.67;;;;;;;8.63;78.52;98180.13;4978241;28;20568;-51
2022/12/31 01:25:38;;;;;;;5.45;2.22;;;;;;;8.65;79.13;98172.34;4985875;28;20050;-52
2022/12/31 01:28:05;;;;;;;4.03;2.03;;;;;;;8.68;78.59;98177.44;4984730;28;20105;-55
2022/12/31 01:30:32;;;;;;;5.45;0.70;;;;;;;8.69;79.04;98174.84;4982045;28;20590;-52
2022/12/31 01:32:58;;;;;;;9.10;2.47;;;;;;;8.70;79.39;98180.81;4985156;28;20084;-54
2022/12/31 01:35:25;;;;;;;3.00;2.05;;;;;;;8.72;78.74;98174.72;4979402;28;20081;-56
2022/12/31 01:37:51;;;;;;;6.72;2.35;;;;;;;8.76;79.04;98174.66;4984173;28;20176;-52
2022/12/31 01:40:18;;;;;;;7.47;2.63;;;;;;;8.70;79.54;98176.53;4983925;28;20050;-55
2022/12/31 01:42:52;;;;;;;7.03;2.38;;;;;;;8.74;79.54;98167.81;4979372;28;20081;-52
2022/12/31 01:45:18;;;;;;;9.68;2.90;;;;;;;8.78;79.35;98162.56;4980055;28;20050;-56
2022/12/31 01:47:50;;;;;;;6.53;2.03;;;;;;;8.79;78.79;98172.00;4983959;28;20104;-56
2022/12/31 01:50:24;;;;;;;6.25;2.53;;;;;;;8.78;79.30;98172.91;4980884;28;20629;-54
2022/12/31 01:52:56;;;;;;;4.80;2.10;;;;;;;8.76;79.49;98169.50;4983537;28;20054;-56
2022/12/31 01:58:06;;;;;;;5.20;1.05;;;;;;;8.86;79.07;98165.81;5021769;27;20406;-56
2022/12/31 02:00:33;;;;;;;4.82;0.60;;;;;;;8.84;79.73;98167.56;5018154;28;20212;-55
2022/12/31 02:03:01;;;;;;;7.30;1.02;;;;;;;8.86;79.88;98161.47;5025432;28;20049;-57
2022/12/31 02:06:07;;;;;;;9.07;0.98;;;;;;;8.83;79.87;98169.31;5020754;28;20053;-52
2022/12/31 02:08:36;;;;;;;6.30;1.02;;;;;;;8.87;79.84;98167.47;5007850;28;20041;-56
2022/12/31 02:14:04;;;;;;;7.68;1.08;;;;;;;9.20;79.54;98171.78;5091707;27;20396;-55
2022/12/31 02:16:59;;;;;;;7.72;1.60;;;;;;;9.06;79.98;98161.84;5036591;28;20054;-57
2022/12/31 02:28:08;;;;;;;6.88;0.63;;;;;;;9.12;80.60;98172.00;5024875;28;20400;-54
2022/12/31 02:30:36;;;;;;;6.63;1.50;;;;;;;9.13;80.91;98163.38;4987242;28;20054;-51
2022/12/31 02:38:22;;;;;;;10.70;1.55;;;;;;;9.53;80.50;98166.59;5034371;28;20430;-52
2022/12/31 02:40:53;;;;;;;9.02;0.70;;;;;;;9.39;81.02;98175.56;5022717;28;20104;-53
2022/12/31 02:43:19;;;;;;;9.48;1.40;;;;;;;9.36;80.89;98180.81;5019764;28;20107;-55
2022/12/31 02:45:59;;;;;;;7.95;1.00;;;;;;;9.35;81.16;98170.50;5018145;28;20069;-53
2022/12/31 02:49:06;;;;;;;6.85;1.00;;;;;;;9.31;81.74;98181.81;5020897;28;20045;-54
2022/12/31 02:51:45;;;;;;;5.55;0.90;;;;;;;9.37;81.06;98192.00;5019649;28;20104;-56
2022/12/31 03:02:29;;;;;;;2.70;0.85;;;;;;;9.40;82.02;98171.25;4999446;28;20142;-53
2022/12/31 03:04:59;;;;;;;3.63;1.58;;;;;;;9.40;81.53;98179.00;4986631;28;20054;-55
2022/12/31 03:07:29;;;;;;;3.72;0.65;;;;;;;9.44;80.84;98182.31;4986400;28;20097;-55
2022/12/31 03:09:56;;;;;;;4.75;0.55;;;;;;;9.41;81.67;98177.25;5014032;28;20080;-56
2022/12/31 03:15:18;;;;;;;7.88;1.05;;;;;;;9.44;81.63;98178.03;5000506;28;20054;-56
2022/12/31 03:17:48;;;;;;;2.58;0.57;;;;;;;9.45;81.15;98174.53;4981024;28;20049;-54
2022/12/31 03:23:05;;;;;;;2.53;0.60;;;;;;;9.42;81.70;98156.53;4990204;28;20470;-52
2022/12/31 03:25:33;;;;;;;3.85;1.08;;;;;;;9.43;81.40;98155.66;4977342;28;20521;-54
2022/12/31 03:28:02;;;;;;;5.72;1.02;;;;;;;9.45;81.86;98140.94;4983393;28;20070;-54
2022/12/31 03:30:29;;;;;;;6.03;0.60;;;;;;;9.45;81.00;98143.53;4982392;28;20060;-54
2022/12/31 03:32:57;;;;;;;5.15;0.80;;;;;;;9.45;81.26;98147.84;4989369;28;20067;-53
2022/12/31 03:35:25;;;;;;;2.10;0.50;;;;;;;9.42;81.50;98156.53;4984511;28;20078;-53
2022/12/31 03:37:52;;;;;;;3.80;1.05;;;;;;;9.42;81.43;98153.94;4982333;28;20542;-52
2022/12/31 03:40:22;;;;;;;4.90;0.85;;;;;;;9.46;80.79;98160.72;4984964;28;20054;-54
2022/12/31 03:42:48;;;;;;;6.93;1.02;;;;;;;9.47;81.19;98156.41;4984767;28;20046;-53
2022/12/31 03:45:16;;;;;;;5.07;0.98;;;;;;;9.49;81.18;98154.63;4983650;28;20085;-54
2022/12/31 03:47:43;;;;;;;4.97;0.55;;;;;;;9.50;81.52;98149.41;4990184;28;20046;-55
2022/12/31 03:50:12;;;;;;;5.80;0.85;;;;;;;9.55;81.06;98151.03;4986490;28;20105;-52
2022/12/31 03:52:39;;;;;;;5.13;1.20;;;;;;;9.55;81.27;98132.94;4986176;28;20553;-52
2022/12/31 03:55:07;;;;;;;8.15;0.77;;;;;;;9.56;81.13;98139.78;4979934;28;20046;-53
2022/12/31 03:57:34;;;;;;;5.40;0.57;;;;;;;9.54;81.50;98128.63;4980102;28;20046;-55
2022/12/31 04:00:01;;;;;;;2.45;1.13;;;;;;;9.54;82.21;98126.91;4985612;28;20047;-54
2022/12/31 04:02:27;;;;;;;1.30;0.50;;;;;;;9.54;82.06;98126.06;4981005;28;20054;-54
2022/12/31 04:04:55;;;;;;;2.97;0.85;;;;;;;9.54;81.79;98132.09;4988164;28;20059;-54
2022/12/31 04:07:22;;;;;;;6.15;0.57;;;;;;;9.57;81.76;98131.13;4980265;28;20059;-52
2022/12/31 04:09:48;;;;;;;2.35;1.52;;;;;;;9.57;81.92;98137.16;4973538;28;20072;-53
2022/12/31 04:12:15;;;;;;;3.30;0.82;;;;;;;9.57;82.50;98125.97;4973511;28;20047;-56
2022/12/31 04:14:42;;;;;;;1.88;0.75;;;;;;;9.57;82.06;98115.63;4973408;28;20050;-53
2022/12/31 04:17:08;;;;;;;3.58;0.82;;;;;;;9.56;82.54;98124.28;4976187;28;20077;-54
2022/12/31 04:19:36;;;;;;;3.17;1.00;;;;;;;9.55;82.45;98112.25;4975417;28;20109;-53
2022/12/31 04:22:04;;;;;;;5.32;0.88;;;;;;;9.55;82.40;98107.91;4970243;28;20558;-53
2022/12/31 04:24:30;;;;;;;1.45;0.43;;;;;;;9.55;82.69;98112.25;4974592;28;20139;-52
2022/12/31 04:26:57;;;;;;;3.22;0.73;;;;;;;9.55;82.76;98104.50;4966323;28;20156;-51
2022/12/31 04:29:33;;;;;;;1.30;0.47;;;;;;;9.54;83.24;98105.38;4964594;28;20494;-53
2022/12/31 04:32:00;;;;;;;2.85;1.00;;;;;;;9.48;83.36;98096.94;4967440;28;20054;-55
2022/12/31 04:34:26;;;;;;;2.58;0.63;;;;;;;9.55;83.31;98086.41;4973967;28;20051;-54
2022/12/31 04:36:53;;;;;;;2.90;0.88;;;;;;;9.48;83.17;98073.66;4975960;28;20082;-54
2022/12/31 04:39:20;;;;;;;3.97;0.55;;;;;;;9.51;83.16;98081.34;4979307;28;20046;-54
2022/12/31 04:41:46;;;;;;;1.55;0.43;;;;;;;9.50;83.23;98071.88;4974564;28;20046;-54
2022/12/31 04:44:13;;;;;;;4.90;0.50;;;;;;;9.48;83.87;98076.25;4973199;28;20074;-53
2022/12/31 04:46:39;;;;;;;1.20;0.40;;;;;;;9.47;83.13;98084.06;4969401;28;21947;-54
2022/12/31 04:49:06;;;;;;;2.42;0.77;;;;;;;9.49;82.83;98088.28;4975007;28;20054;-53
2022/12/31 04:51:33;;;;;;;1.40;0.82;;;;;;;9.47;83.64;98087.50;4971458;28;20074;-53
2022/12/31 04:54:00;;;;;;;2.25;1.20;;;;;;;9.48;83.61;98091.75;4967337;28;20178;-57
2022/12/31 04:56:28;;;;;;;1.60;0.40;;;;;;;9.48;83.47;98086.59;4968947;28;20055;-55
2022/12/31 04:58:55;;;;;;;1.50;0.47;;;;;;;9.47;83.15;98079.75;4984707;28;20123;-54
2022/12/31 05:01:21;;;;;;;0.73;0.30;;;;;;;9.46;83.52;98087.53;4965356;28;20141;-53
2022/12/31 05:03:48;;;;;;;1.70;0.22;;;;;;;9.48;83.56;98081.44;4971795;28;20361;-52
2022/12/31 05:06:18;;;;;;;0.73;0.73;;;;;;;9.47;83.13;98064.22;4963412;28;20082;-52
2022/12/31 05:08:46;;;;;;;6.07;1.13;;;;;;;9.47;83.34;98069.41;4966274;28;20105;-53
2022/12/31 05:11:12;;;;;;;2.22;0.40;;;;;;;9.47;84.04;98074.56;4964837;28;20134;-53
2022/12/31 05:13:39;;;;;;;0.88;0.35;;;;;;;9.46;83.96;98078.03;4973030;28;20105;-52
2022/12/31 05:16:06;;;;;;;1.55;0.80;;;;;;;9.44;83.63;98072.06;4969208;28;20097;-53
2022/12/31 05:18:34;;;;;;;1.23;0.55;;;;;;;9.46;83.96;98062.53;4966364;28;20101;-58
2022/12/31 05:21:01;;;;;;;2.88;0.65;;;;;;;9.43;84.23;98054.88;4969241;28;20046;-54
2022/12/31 05:23:27;;;;;;;2.92;0.93;;;;;;;9.48;83.83;98060.75;4988779;28;20050;-54
2022/12/31 05:25:54;;;;;;;0.85;0.55;;;;;;;9.46;84.44;98057.34;4966799;28;20747;-52
2022/12/31 05:28:21;;;;;;;0.60;0.60;;;;;;;9.42;84.40;98054.94;4968202;28;20687;-53
2022/12/31 05:30:49;;;;;;;1.02;0.35;;;;;;;9.47;84.56;98069.41;4968838;28;20070;-56
2022/12/31 05:33:17;;;;;;;0.45;0.45;;;;;;;9.46;84.73;98070.28;4969013;28;20059;-55
2022/12/31 05:35:44;;;;;;;0.57;0.57;;;;;;;9.47;84.56;98063.38;4963615;28;20096;-54
2022/12/31 05:38:11;;;;;;;0.30;0.30;;;;;;;9.50;84.35;98071.88;4984353;28;20574;-54
2022/12/31 05:40:37;;;;;;;0.47;0.45;;;;;;;9.51;84.15;98065.84;4967533;28;20054;-52
2022/12/31 05:43:04;;;;;;;0.65;0.65;;;;;;;9.58;84.27;98060.47;4967416;28;20078;-57
2022/12/31 05:45:31;;;;;;;0.32;0.32;;;;;;;9.60;84.34;98076.78;4962043;28;20038;-55
2022/12/31 05:47:58;;;;;;;0.55;0.55;;;;;;;9.58;84.37;98070.78;4968739;28;20046;-52
2022/12/31 05:50:24;;;;;;;0.57;0.57;;;;;;;9.61;84.55;98068.97;4965676;28;20502;-50
2022/12/31 05:52:51;;;;;;;0.90;0.55;;;;;;;9.64;85.02;98065.44;4974958;28;20117;-57
2022/12/31 05:55:19;;;;;;;1.02;0.52;;;;;;;9.67;84.75;98070.53;4965207;28;20494;-51
2022/12/31 05:57:46;;;;;;;2.25;0.40;;;;;;;9.70;84.63;98070.44;4966594;28;20096;-53
2022/12/31 06:00:14;;;;;;;0.82;0.55;;;;;;;9.70;84.85;98067.84;4975238;28;20461;-55
2022/12/31 06:02:40;;;;;;;0.40;0.28;;;;;;;9.68;84.95;98072.22;4967371;28;20634;-54
2022/12/31 06:05:08;;;;;;;1.33;0.45;;;;;;;9.72;85.04;98067.78;4969288;28;20517;-53
2022/12/31 06:07:34;;;;;;;1.63;0.82;;;;;;;9.68;85.05;98067.03;4966653;28;20055;-57
2022/12/31 06:10:01;;;;;;;1.13;1.02;;;;;;;9.69;85.52;98066.13;4967646;28;20081;-55
2022/12/31 06:12:27;;;;;;;5.05;0.65;;;;;;;9.76;84.83;98065.06;4965306;28;20110;-56
2022/12/31 06:14:54;;;;;;;2.75;1.65;;;;;;;9.79;85.10;98056.34;4969246;28;20066;-53
2022/12/31 06:17:21;;;;;;;1.55;0.85;;;;;;;9.81;84.41;98054.59;4971942;28;20054;-55
2022/12/31 06:19:47;;;;;;;1.95;0.47;;;;;;;9.82;84.96;98045.06;4967422;28;20729;-55
2022/12/31 06:22:14;;;;;;;1.02;0.43;;;;;;;9.86;85.18;98051.88;4974047;28;20057;-54
2022/12/31 06:24:41;;;;;;;2.05;1.35;;;;;;;9.90;85.45;98056.03;4967692;28;20498;-57
2022/12/31 06:27:08;;;;;;;4.10;1.55;;;;;;;9.94;85.23;98042.13;4964173;28;20072;-54
2022/12/31 06:29:34;;;;;;;6.68;2.80;;;;;;;9.97;84.37;98033.41;4968401;28;20101;-56
2022/12/31 06:32:01;;;;;;;4.28;2.08;;;;;;;10.00;85.42;98026.38;4967729;28;20047;-57
2022/12/31 06:34:28;;;;;;;5.57;2.58;;;;;;;10.08;84.90;98022.69;4969693;28;20061;-55
2022/12/31 06:36:54;;;;;;;2.10;1.02;;;;;;;10.11;84.86;98004.50;4965345;28;20108;-55
2022/12/31 06:39:21;;;;;;;7.32;2.40;;;;;;;10.13;85.35;98010.44;4964718;28;20057;-56
2022/12/31 06:41:47;;;;;;;4.78;1.75;;;;;;;10.17;84.60;98032.75;4967076;28;20047;-58
2022/12/31 06:44:14;;;;;;;5.75;0.68;;;;;;;10.21;85.51;98039.50;4969931;28;20177;-56
2022/12/31 06:46:41;;;;;;;3.33;0.68;;;;;;;10.26;84.92;98036.75;4962884;28;20043;-57
2022/12/31 06:49:07;;;;;;;2.90;0.85;;;;;;;10.29;85.04;98024.56;4972450;28;20066;-57
2022/12/31 06:51:34;;;;;;;4.80;0.68;;;;;;;10.33;85.85;98048.59;4969161;28;20086;-55
2022/12/31 06:54:00;;;;;;;3.80;0.35;;;;;;;10.42;85.60;98042.25;4966963;28;20046;-55
2022/12/31 06:56:28;;;;;;;3.22;0.50;;;;;;;10.47;85.84;98045.53;4967211;28;20539;-57
2022/12/31 06:59:00;;;;;;;5.80;1.80;;;;;;;10.51;85.32;98052.31;4966868;28;20050;-54
2022/12/31 07:07:29;;;;;;;4.03;0.38;;;;;;;10.65;85.38;98051.00;5061067;28;20403;-56
2022/12/31 07:10:06;;;;;;;8.13;0.65;;;;;;;10.69;84.92;98065.53;5023045;28;20049;-56
2022/12/31 07:12:57;;;;;;;3.58;0.57;;;;;;;10.72;85.03;98070.59;5019079;28;20056;-54
2022/12/31 07:21:10;;;;;;;10.48;0.82;;;;;;;10.83;85.08;98067.63;5044177;27;20394;-54
2022/12/31 07:23:37;;;;;;;4.68;0.95;;;;;;;10.84;85.06;98073.66;5003658;28;20046;-54
2022/12/31 07:42:23;;;;;;;3.83;1.98;;;;;;;11.14;84.17;98104.50;5015989;28;20395;-55
2022/12/31 07:44:59;;;;;;;6.93;2.35;;;;;;;11.13;84.06;98100.25;4976779;28;20086;-54
2022/12/31 07:47:27;;;;;;;6.97;1.85;;;;;;;11.19;84.43;98084.47;4983858;28;20074;-55
2022/12/31 07:49:55;;;;;;;3.40;1.70;;;;;;;11.18;84.27;98104.34;4982908;28;20070;-54
2022/12/31 07:52:22;;;;;;;6.72;1.92;;;;;;;11.22;83.29;98105.09;4982963;28;20059;-56
2022/12/31 07:54:49;;;;;;;9.98;3.13;;;;;;;11.23;83.18;98118.88;4987490;28;20466;-57
2022/12/31 07:57:18;;;;;;;6.70;2.10;;;;;;;11.18;83.79;98119.06;4984309;28;20046;-56
2022/12/31 08:00:08;;;;;;;8.77;2.88;;;;;;;11.16;82.62;98128.63;4981952;28;20070;-54
2022/12/31 08:11:45;;;;;;;8.07;0.88;;;;;;;11.25;82.41;98156.78;5068275;27;20390;-54
2022/12/31 08:14:14;;;;;;;2.47;0.50;;;;;;;11.27;82.17;98159.34;5004939;28;20052;-56
2022/12/31 08:16:41;;;;;;;6.35;0.57;;;;;;;11.32;83.05;98153.09;4995692;28;20045;-53
2022/12/31 08:19:21;;;;;;;6.53;0.40;;;;;;;11.31;82.93;98169.53;5006126;28;20049;-54
2022/12/31 08:24:57;;;;;;;2.25;0.70;;;;;;;11.29;82.15;98184.28;5048515;27;20393;-55
2022/12/31 08:30:14;;;;;;;7.07;1.85;;;;;;;11.35;81.17;98197.94;5004441;28;20420;-55
2022/12/31 08:38:16;;;;;;;8.15;0.88;;;;;;;11.36;81.78;98212.59;5051230;28;20393;-55
2022/12/31 08:45:57;;;;;;;7.32;0.80;;;;;;;11.40;81.56;98232.31;5044882;27;20420;-54
2022/12/31 08:51:01;;;;;;;9.50;0.90;;;;;;;11.43;81.17;98242.59;5103840;27;20896;-54
2022/12/31 08:53:28;;;;;;;7.30;0.85;;;;;;;11.44;81.71;98249.44;5094576;28;20075;-54
2022/12/31 08:56:04;;;;;;;11.48;1.15;;;;;;;11.40;80.83;98263.44;5097077;28;20063;-53
2022/12/31 09:01:13;;;;;;;9.57;1.77;;;;;;;11.46;80.70;98278.78;5035839;27;20410;-56
2022/12/31 09:06:31;;;;;;;8.25;1.00;;;;;;;11.46;81.07;98278.78;5021299;28;20398;-56
2022/12/31 09:12:09;;;;;;;6.00;1.80;;;;;;;11.49;80.23;98283.00;5075312;27;20401;-57
2022/12/31 09:15:02;;;;;;;7.53;1.90;;;;;;;11.44;80.89;98280.56;5058912;28;20045;-56
2022/12/31 09:20:14;;;;;;;12.35;2.20;;;;;;;11.76;79.72;98286.34;5027176;28;20425;-53
2022/12/31 09:22:41;;;;;;;8.90;1.63;;;;;;;11.64;79.84;98299.75;4982610;28;20050;-53
2022/12/31 09:25:14;;;;;;;25.45;7.95;;;;;;;11.61;79.75;98307.63;4986942;28;20054;-56
2022/12/31 09:30:28;;;;;;;11.50;0.93;;;;;;;11.62;79.90;98304.16;5020597;28;20411;-56
2022/12/31 09:33:06;;;;;;;9.15;1.17;;;;;;;11.63;80.42;98319.66;5018414;28;20115;-54
2022/12/31 09:38:36;;;;;;;3.78;1.02;;;;;;;11.67;79.64;98317.81;5047492;28;20405;-54
2022/12/31 09:52:52;;;;;;;10.80;1.67;;;;;;;11.69;80.53;98336.75;5035676;28;20429;-55
2022/12/31 09:55:58;;;;;;;12.38;1.85;;;;;;;11.76;79.81;98332.19;5031812;28;20696;-55
2022/12/31 10:04:26;;;;;;;5.55;1.83;;;;;;;11.85;79.27;98331.03;5041166;27;20400;-55
2022/12/31 10:10:11;;;;;;;12.85;1.88;;;;;;;12.14;79.63;98336.94;5017891;27;20552;-54
2022/12/31 10:18:32;;;;;;;7.60;0.77;;;;;;;11.97;80.70;98330.59;5009825;28;20620;-54
2022/12/31 10:26:31;;;;;;;14.82;1.02;;;;;;;11.97;79.68;98340.97;5098999;27;20402;-54
2022/12/31 10:29:12;;;;;;;9.68;1.08;;;;;;;11.99;80.91;98344.34;5054741;28;20455;-54
2022/12/31 10:37:09;;;;;;;8.00;1.73;;;;;;;12.05;80.16;98338.94;5050852;27;20408;-55
2022/12/31 10:42:48;;;;;;;9.60;1.40;;;;;;;12.04;80.89;98358.00;5008735;28;20410;-53
2022/12/31 11:10:15;;;;;;;11.23;1.45;;;;;;;12.30;81.16;98369.19;5015622;27;20411;-59
2022/12/31 11:15:59;;;;;;;10.32;2.25;;;;;;;12.33;80.72;98353.53;5018936;28;20429;-60
2022/12/31 11:29:27;;;;;;;12.57;1.67;;;;;;;12.42;80.21;98361.88;5043464;28;20407;-60
2022/12/31 11:35:01;;;;;;;11.38;2.03;;;;;;;12.69;80.19;98370.38;5059003;27;20395;-60
2022/12/31 11:37:35;;;;;;;10.20;2.78;;;;;;;12.58;80.46;98375.97;5002679;28;20100;-60
2022/12/31 11:56:22;;;;;;;12.90;2.22;;;;;;;12.65;80.94;98352.34;5032134;28;20754;-60
2022/12/31 11:58:52;;;;;;;7.10;1.00;;;;;;;12.57;80.57;98355.25;5002939;28;20127;-60
2022/12/31 12:01:23;;;;;;;;;;;;;;;12.44;79.93;98350.53;5018576;28;20084;-61
2022/12/31 12:03:50;;;;;;;6.20;0.77;;;;;;;12.51;80.78;98351.16;5024055;28;19976;-61
2022/12/31 12:06:23;;;;;;;11.07;1.67;;;;;;;12.55;80.30;98352.72;5021353;28;20072;-60
2022/12/31 12:08:50;;;;;;;10.02;0.77;;;;;;;12.52;79.78;98352.84;5021337;28;20042;-60
2022/12/31 12:11:22;;;;;;;14.15;1.42;;;;;;;12.51;81.29;98351.16;5022305;28;21399;-60
2022/12/31 12:13:49;;;;;;;10.73;1.00;;;;;;;12.52;79.94;98346.78;5018419;28;20072;-59
2022/12/31 12:16:19;;;;;;;11.15;1.30;;;;;;;12.52;80.07;98345.03;5018700;28;20056;-60
2022/12/31 12:18:59;;;;;;;11.45;1.52;;;;;;;12.54;80.14;98334.59;5013737;28;20044;-60
2022/12/31 12:21:27;;;;;;;11.38;1.00;;;;;;;12.54;80.26;98337.19;5019738;28;20045;-60
2022/12/31 12:24:04;;;;;;;8.90;1.80;;;;;;;12.47;80.95;98328.81;5020988;28;20127;-61
2022/12/31 12:26:42;;;;;;;9.00;1.13;;;;;;;12.51;79.93;98338.16;5020438;28;20041;-59
2022/12/31 12:29:21;;;;;;;8.23;1.75;;;;;;;12.47;79.91;98326.22;5024031;28;20099;-60
2022/12/31 12:32:12;;;;;;;6.55;0.80;;;;;;;12.44;80.75;98323.72;5015226;28;20070;-60
2022/12/31 12:34:40;;;;;;;7.13;1.20;;;;;;;12.45;80.83;98320.22;5023786;28;20053;-60
2022/12/31 12:37:33;;;;;;;9.90;1.45;;;;;;;12.41;80.56;98309.09;5024737;28;20053;-60
2022/12/31 12:40:08;;;;;;;7.28;1.98;;;;;;;12.47;80.91;98295.88;5022825;28;20437;-60
2022/12/31 12:42:34;;;;;;;3.78;0.68;;;;;;;12.46;80.44;98296.78;5023020;28;20076;-60
2022/12/31 12:47:41;;;;;;;6.90;0.82;;;;;;;12.46;79.92;98285.53;5047916;27;20983;-61
2022/12/31 12:50:16;;;;;;;8.05;0.85;;;;;;;12.48;80.63;98283.75;5026578;28;20628;-60
2022/12/31 12:55:39;;;;;;;6.70;1.98;;;;;;;12.48;80.65;98286.34;5050588;28;20406;-60
2022/12/31 12:58:24;;;;;;;8.13;3.15;;;;;;;12.49;81.40;98285.44;5036611;28;20057;-60
2022/12/31 13:01:22;;;;;;;9.32;3.33;;;;;;;12.49;80.22;98289.81;5036082;28;20041;-60
2022/12/31 13:09:47;;;;;;;8.82;1.27;;;;;;;12.81;79.46;98303.25;5036509;27;20403;-61
2022/12/31 13:12:23;;;;;;;9.23;2.47;;;;;;;12.63;80.62;98297.88;5028254;28;20565;-60
2022/12/31 13:15:01;;;;;;;7.15;2.85;;;;;;;12.58;80.61;98313.66;5023580;28;20135;-60
2022/12/31 13:28:15;;;;;;;5.00;1.77;;;;;;;12.51;80.99;98312.19;5043777;27;20404;-60
2022/12/31 13:30:45;;;;;;;5.30;1.40;;;;;;;12.42;81.19;98309.94;5041576;28;20112;-60
2022/12/31 13:33:17;;;;;;;3.90;1.63;;;;;;;12.45;80.55;98304.63;5029618;28;20496;-60
2022/12/31 13:38:27;;;;;;;4.40;0.93;;;;;;;12.42;80.22;98294.34;5032771;28;20415;-60
2022/12/31 13:41:03;;;;;;;2.83;0.40;;;;;;;12.36;80.38;98282.47;4983739;28;20558;-59
2022/12/31 13:43:39;;;;;;;5.32;0.65;;;;;;;12.37;80.10;98285.91;4980442;28;20121;-59
2022/12/31 13:46:50;;;;;;;3.03;0.55;;;;;;;12.31;80.82;98277.47;4984299;28;20140;-59
2022/12/31 13:52:16;;;;;;;3.05;0.75;;;;;;;12.33;80.68;98260.06;5063687;28;20399;-60
2022/12/31 13:54:58;;;;;;;5.68;0.57;;;;;;;12.31;80.49;98246.31;5061452;28;20567;-60
2022/12/31 13:57:40;;;;;;;1.83;0.77;;;;;;;12.29;80.57;98248.13;5060101;28;20103;-60
2022/12/31 14:00:26;;;;;;;6.68;0.65;;;;;;;12.26;81.01;98237.84;5061099;28;20498;-60
2022/12/31 14:05:40;;;;;;;4.43;2.08;;;;;;;12.26;81.56;98237.84;5137087;27;20123;-60
2022/12/31 14:08:08;;;;;;;5.03;1.95;;;;;;;12.26;81.88;98245.63;5122686;28;20079;-59
2022/12/31 14:11:03;;;;;;;3.33;2.05;;;;;;;12.22;81.74;98251.84;5120929;28;20039;-59
2022/12/31 14:14:10;;;;;;;1.98;1.65;;;;;;;12.19;80.84;98236.38;5114287;28;20097;-60
2022/12/31 14:16:50;;;;;;;5.47;1.92;;;;;;;12.19;80.91;98237.25;5106999;28;20116;-59
2022/12/31 14:24:48;;;;;;;4.00;1.10;;;;;;;12.51;80.80;98242.09;4982950;28;20416;-59
2022/12/31 14:27:28;;;;;;;3.50;1.70;;;;;;;12.28;81.50;98236.03;4970063;28;20058;-59
2022/12/31 14:30:02;;;;;;;2.53;1.80;;;;;;;12.26;81.00;98242.22;4968380;28;20503;-60
2022/12/31 14:32:56;;;;;;;2.92;2.13;;;;;;;12.22;81.68;98231.06;4978410;28;20151;-59
2022/12/31 14:46:30;;;;;;;2.97;1.52;;;;;;;12.08;81.69;98224.69;5087645;27;20385;-59
2022/12/31 14:51:35;;;;;;;6.53;1.17;;;;;;;12.39;80.44;98224.41;5040033;27;20406;-59
2022/12/31 14:54:01;;;;;;;6.20;0.80;;;;;;;12.14;81.56;98226.19;5007159;28;20524;-60
2022/12/31 14:56:39;;;;;;;9.35;1.63;;;;;;;12.10;80.99;98226.38;5004929;28;20081;-59
2022/12/31 14:59:28;;;;;;;4.65;0.68;;;;;;;12.00;80.76;98221.50;5012938;28;20115;-59
2022/12/31 15:01:57;;;;;;;2.53;0.75;;;;;;;12.03;80.77;98229.16;5010068;28;20049;-60
2022/12/31 15:04:42;;;;;;;3.20;0.80;;;;;;;11.99;80.83;98237.97;5012407;28;20053;-60
2022/12/31 15:07:35;;;;;;;5.50;0.80;;;;;;;11.92;80.86;98244.31;5009604;28;20045;-59
2022/12/31 15:10:14;;;;;;;4.65;0.93;;;;;;;11.93;80.91;98225.25;5007234;28;20132;-58
2022/12/31 15:13:05;;;;;;;5.25;1.38;;;;;;;11.88;81.16;98232.31;5009186;28;20120;-59
2022/12/31 15:16:03;;;;;;;5.80;0.68;;;;;;;11.87;81.24;98230.66;5008906;28;20058;-59
2022/12/31 15:23:45;;;;;;;3.38;0.82;;;;;;;11.83;80.78;98225.56;5067625;27;20416;-60
2022/12/31 15:26:30;;;;;;;5.00;0.47;;;;;;;11.77;80.66;98222.38;5044407;28;20053;-60
2022/12/31 15:29:00;;;;;;;2.05;0.73;;;;;;;11.79;81.29;98234.38;5044295;28;20100;-60
2022/12/31 15:31:27;;;;;;;;;;;;;;;11.63;82.17;98233.25;5045167;28;20144;-59
2022/12/31 15:36:37;;;;;;;2.38;1.88;;;;;;;11.70;80.95;98229.53;5073976;27;20399;-59
2022/12/31 15:39:22;;;;;;;4.95;2.42;;;;;;;11.71;80.62;98226.03;5063752;28;20067;-59
2022/12/31 15:41:48;;;;;;;2.28;1.85;;;;;;;11.66;82.25;98215.81;5049399;28;20090;-60
2022/12/31 15:50:12;;;;;;;6.13;1.02;;;;;;;11.69;81.57;98212.28;5058914;27;20381;-60
2022/12/31 15:52:42;;;;;;;2.72;0.68;;;;;;;11.69;81.71;98220.06;5028058;28;20050;-59
2022/12/31 15:55:18;;;;;;;;;;;;;;;11.55;82.15;98218.81;5008446;28;20054;-60
2022/12/31 15:57:46;;;;;;;2.33;0.73;;;;;;;11.65;81.33;98226.28;5005017;28;19922;-59
2022/12/31 16:00:18;;;;;;;3.53;0.50;;;;;;;11.65;81.15;98231.44;5007053;28;20072;-59
2022/12/31 16:02:47;;;;;;;4.25;0.68;;;;;;;11.64;80.71;98229.75;5009156;28;20053;-59
2022/12/31 16:05:18;;;;;;;5.70;0.52;;;;;;;11.65;81.37;98236.63;5003301;28;20116;-59
2022/12/31 16:07:45;;;;;;;4.07;0.60;;;;;;;11.66;81.83;98240.91;5002582;28;20094;-59
2022/12/31 16:10:20;;;;;;;4.50;0.90;;;;;;;11.64;81.93;98240.97;5001834;28;20054;-59
2022/12/31 16:12:48;;;;;;;4.10;0.98;;;;;;;11.65;80.95;98226.28;5003660;28;20104;-60
2022/12/31 16:15:22;;;;;;;4.28;0.98;;;;;;;11.64;80.63;98206.41;5004174;28;20107;-59
2022/12/31 16:17:59;;;;;;;5.88;0.63;;;;;;;11.63;81.77;98223.72;5000087;28;20553;-59
2022/12/31 16:20:29;;;;;;;6.20;0.65;;;;;;;11.65;81.45;98228.88;5002588;28;20129;-59
2022/12/31 16:22:58;;;;;;;7.65;0.60;;;;;;;11.64;80.90;98232.34;5002125;28;20073;-60
2022/12/31 16:25:27;;;;;;;3.20;0.40;;;;;;;11.61;82.16;98241.06;5005597;28;20074;-59
2022/12/31 16:28:00;;;;;;;4.85;0.40;;;;;;;11.61;82.05;98240.22;5004729;28;20134;-59